Terminal Aerodrome Forecast
Issued by NWS

Home | Current Version | Previous Version | Text Only | Print | Product List | Glossary On
Versions: 1 2 3 4 5 6 7 8 9 10 11 12 13 14 15 16 17
000
FTUS41 KPHI 300000 AAA
TAFPNE
TAF AMD
KPNE 300022Z 3000/3024 16006KT P6SM -SHSN OVC040
      TEMPO 3000/3002 3SM -SN OVC020
     FM300300 18006KT P6SM OVC040
     FM300800 22006KT 5SM -SHSN OVC015
     FM301000 29010KT P6SM SCT015 OVC040
     FM301400 32018G31KT P6SM BKN040=

USA.gov is the U.S. government's official web portal to all federal, state and local government web resources and services.